sensor_id;sensor_type;location;lat;lon;timestamp;P1;durP1;ratioP1;P2;durP2;ratioP2
64959;SDS011;51487;52.266;10.542;2023-04-01T00:01:22;5.10;;;1.70;;
64959;SDS011;51487;52.266;10.542;2023-04-01T00:03:47;3.58;;;1.73;;
64959;SDS011;51487;52.266;10.542;2023-04-01T00:06:14;3.40;;;1.60;;
64959;SDS011;51487;52.266;10.542;2023-04-01T00:08:41;4.70;;;1.80;;
64959;SDS011;51487;52.266;10.542;2023-04-01T00:11:06;5.68;;;1.80;;
64959;SDS011;51487;52.266;10.542;2023-04-01T00:13:32;5.72;;;1.45;;
64959;SDS011;51487;52.266;10.542;2023-04-01T00:15:57;4.80;;;1.83;;
64959;SDS011;51487;52.266;10.542;2023-04-01T00:18:23;5.25;;;1.48;;
64959;SDS011;51487;52.266;10.542;2023-04-01T00:20:49;4.85;;;1.80;;
64959;SDS011;51487;52.266;10.542;2023-04-01T00:23:15;5.22;;;1.67;;
64959;SDS011;51487;52.266;10.542;2023-04-01T00:25:41;5.22;;;1.80;;
64959;SDS011;51487;52.266;10.542;2023-04-01T00:28:07;3.88;;;1.55;;
64959;SDS011;51487;52.266;10.542;2023-04-01T00:30:33;4.22;;;1.60;;
64959;SDS011;51487;52.266;10.542;2023-04-01T00:32:58;4.72;;;1.50;;
64959;SDS011;51487;52.266;10.542;2023-04-01T00:35:23;4.00;;;1.70;;
64959;SDS011;51487;52.266;10.542;2023-04-01T00:37:49;3.70;;;1.60;;
64959;SDS011;51487;52.266;10.542;2023-04-01T00:40:34;4.97;;;1.55;;
64959;SDS011;51487;52.266;10.542;2023-04-01T00:43:01;3.92;;;1.52;;
64959;SDS011;51487;52.266;10.542;2023-04-01T00:45:28;4.32;;;1.35;;
64959;SDS011;51487;52.266;10.542;2023-04-01T00:48:47;2.80;;;1.40;;
64959;SDS011;51487;52.266;10.542;2023-04-01T00:50:58;7.43;;;1.70;;
64959;SDS011;51487;52.266;10.542;2023-04-01T00:53:27;5.82;;;1.38;;
64959;SDS011;51487;52.266;10.542;2023-04-01T00:55:57;2.30;;;1.30;;
64959;SDS011;51487;52.266;10.542;2023-04-01T00:58:26;4.33;;;1.53;;
64959;SDS011;51487;52.266;10.542;2023-04-01T01:00:55;2.85;;;1.30;;
64959;SDS011;51487;52.266;10.542;2023-04-01T01:03:23;2.83;;;1.20;;
64959;SDS011;51487;52.266;10.542;2023-04-01T01:11:09;3.70;;;1.40;;
64959;SDS011;51487;52.266;10.542;2023-04-01T01:14:00;3.17;;;1.30;;
64959;SDS011;51487;52.266;10.542;2023-04-01T01:16:43;4.15;;;1.50;;
64959;SDS011;51487;52.266;10.542;2023-04-01T01:19:26;2.63;;;1.40;;
64959;SDS011;51487;52.266;10.542;2023-04-01T01:27:27;3.25;;;1.30;;
64959;SDS011;51487;52.266;10.542;2023-04-01T01:35:45;2.83;;;1.50;;
64959;SDS011;51487;52.266;10.542;2023-04-01T01:38:16;2.70;;;1.40;;
64959;SDS011;51487;52.266;10.542;2023-04-01T01:40:44;7.80;;;1.50;;
64959;SDS011;51487;52.266;10.542;2023-04-01T01:43:13;3.78;;;1.42;;
64959;SDS011;51487;52.266;10.542;2023-04-01T01:45:44;3.67;;;1.58;;
64959;SDS011;51487;52.266;10.542;2023-04-01T01:48:12;5.65;;;1.42;;
64959;SDS011;51487;52.266;10.542;2023-04-01T01:50:38;2.40;;;1.30;;
64959;SDS011;51487;52.266;10.542;2023-04-01T01:53:06;3.08;;;1.45;;
64959;SDS011;51487;52.266;10.542;2023-04-01T01:55:34;2.55;;;1.10;;
64959;SDS011;51487;52.266;10.542;2023-04-01T01:58:07;5.20;;;1.50;;
64959;SDS011;51487;52.266;10.542;2023-04-01T02:00:37;4.30;;;1.48;;
64959;SDS011;51487;52.266;10.542;2023-04-01T02:03:03;3.78;;;1.33;;
64959;SDS011;51487;52.266;10.542;2023-04-01T02:05:30;3.83;;;1.58;;
64959;SDS011;51487;52.266;10.542;2023-04-01T02:08:31;2.70;;;1.25;;
64959;SDS011;51487;52.266;10.542;2023-04-01T02:10:57;6.00;;;1.40;;
64959;SDS011;51487;52.266;10.542;2023-04-01T02:13:29;4.45;;;1.45;;
64959;SDS011;51487;52.266;10.542;2023-04-01T02:16:02;2.72;;;1.50;;
64959;SDS011;51487;52.266;10.542;2023-04-01T02:18:33;3.72;;;1.25;;
64959;SDS011;51487;52.266;10.542;2023-04-01T02:21:00;3.65;;;1.38;;
64959;SDS011;51487;52.266;10.542;2023-04-01T02:23:26;4.60;;;1.50;;
64959;SDS011;51487;52.266;10.542;2023-04-01T02:25:52;3.70;;;1.25;;
64959;SDS011;51487;52.266;10.542;2023-04-01T02:28:18;3.25;;;1.38;;
64959;SDS011;51487;52.266;10.542;2023-04-01T02:30:45;2.13;;;1.45;;
64959;SDS011;51487;52.266;10.542;2023-04-01T02:33:14;3.17;;;1.60;;
64959;SDS011;51487;52.266;10.542;2023-04-01T02:35:40;6.63;;;1.60;;
64959;SDS011;51487;52.266;10.542;2023-04-01T02:38:06;4.47;;;1.40;;
64959;SDS011;51487;52.266;10.542;2023-04-01T02:40:41;1.73;;;1.40;;
64959;SDS011;51487;52.266;10.542;2023-04-01T02:43:10;4.80;;;1.38;;
64959;SDS011;51487;52.266;10.542;2023-04-01T02:45:36;3.33;;;1.55;;
64959;SDS011;51487;52.266;10.542;2023-04-01T02:48:01;5.55;;;1.38;;
64959;SDS011;51487;52.266;10.542;2023-04-01T02:50:27;3.63;;;1.38;;
64959;SDS011;51487;52.266;10.542;2023-04-01T02:52:52;4.05;;;1.63;;
64959;SDS011;51487;52.266;10.542;2023-04-01T02:55:18;4.60;;;1.60;;
64959;SDS011;51487;52.266;10.542;2023-04-01T02:57:43;5.05;;;1.45;;
64959;SDS011;51487;52.266;10.542;2023-04-01T03:00:08;3.83;;;1.50;;
64959;SDS011;51487;52.266;10.542;2023-04-01T03:02:36;3.03;;;1.30;;
64959;SDS011;51487;52.266;10.542;2023-04-01T03:05:03;4.60;;;1.30;;
64959;SDS011;51487;52.266;10.542;2023-04-01T03:07:29;1.45;;;1.23;;
64959;SDS011;51487;52.266;10.542;2023-04-01T03:09:54;4.85;;;1.50;;
64959;SDS011;51487;52.266;10.542;2023-04-01T03:12:20;1.63;;;1.00;;
64959;SDS011;51487;52.266;10.542;2023-04-01T03:14:45;2.95;;;1.27;;
64959;SDS011;51487;52.266;10.542;2023-04-01T03:17:10;4.32;;;1.40;;
64959;SDS011;51487;52.266;10.542;2023-04-01T03:19:36;5.65;;;1.40;;
64959;SDS011;51487;52.266;10.542;2023-04-01T03:22:01;2.63;;;1.50;;
64959;SDS011;51487;52.266;10.542;2023-04-01T03:24:26;3.88;;;1.70;;
64959;SDS011;51487;52.266;10.542;2023-04-01T03:26:52;2.42;;;1.30;;
64959;SDS011;51487;52.266;10.542;2023-04-01T03:29:17;5.18;;;1.50;;
64959;SDS011;51487;52.266;10.542;2023-04-01T03:31:43;4.18;;;1.60;;
64959;SDS011;51487;52.266;10.542;2023-04-01T03:34:08;1.75;;;1.27;;
64959;SDS011;51487;52.266;10.542;2023-04-01T03:36:34;3.53;;;1.58;;
64959;SDS011;51487;52.266;10.542;2023-04-01T03:38:59;4.18;;;1.48;;
64959;SDS011;51487;52.266;10.542;2023-04-01T03:41:25;3.88;;;1.50;;
64959;SDS011;51487;52.266;10.542;2023-04-01T03:43:51;4.13;;;1.38;;
64959;SDS011;51487;52.266;10.542;2023-04-01T03:46:18;2.85;;;1.30;;
64959;SDS011;51487;52.266;10.542;2023-04-01T03:48:44;5.28;;;1.70;;
64959;SDS011;51487;52.266;10.542;2023-04-01T03:51:09;3.97;;;1.48;;
64959;SDS011;51487;52.266;10.542;2023-04-01T03:53:35;1.58;;;1.30;;
64959;SDS011;51487;52.266;10.542;2023-04-01T03:56:06;2.80;;;1.30;;
64959;SDS011;51487;52.266;10.542;2023-04-01T03:58:33;3.80;;;1.50;;
64959;SDS011;51487;52.266;10.542;2023-04-01T04:00:58;4.07;;;1.48;;
64959;SDS011;51487;52.266;10.542;2023-04-01T04:03:24;3.40;;;1.38;;
64959;SDS011;51487;52.266;10.542;2023-04-01T04:05:49;6.15;;;1.40;;
64959;SDS011;51487;52.266;10.542;2023-04-01T04:08:15;3.65;;;1.58;;
64959;SDS011;51487;52.266;10.542;2023-04-01T04:10:41;2.85;;;1.48;;
64959;SDS011;51487;52.266;10.542;2023-04-01T04:13:08;3.80;;;1.50;;
64959;SDS011;51487;52.266;10.542;2023-04-01T04:15:34;3.45;;;1.30;;
64959;SDS011;51487;52.266;10.542;2023-04-01T04:17:59;1.75;;;1.40;;
64959;SDS011;51487;52.266;10.542;2023-04-01T04:20:25;2.67;;;1.40;;
64959;SDS011;51487;52.266;10.542;2023-04-01T04:22:50;2.63;;;1.38;;
64959;SDS011;51487;52.266;10.542;2023-04-01T04:25:15;3.47;;;1.40;;
64959;SDS011;51487;52.266;10.542;2023-04-01T04:27:41;2.60;;;1.40;;
64959;SDS011;51487;52.266;10.542;2023-04-01T04:30:07;3.35;;;1.60;;
64959;SDS011;51487;52.266;10.542;2023-04-01T04:32:33;4.00;;;1.40;;
64959;SDS011;51487;52.266;10.542;2023-04-01T04:34:59;4.55;;;1.40;;
64959;SDS011;51487;52.266;10.542;2023-04-01T04:37:24;2.10;;;1.20;;
64959;SDS011;51487;52.266;10.542;2023-04-01T04:39:50;3.72;;;1.35;;
64959;SDS011;51487;52.266;10.542;2023-04-01T04:42:16;3.63;;;1.42;;
64959;SDS011;51487;52.266;10.542;2023-04-01T04:44:41;3.33;;;1.20;;
64959;SDS011;51487;52.266;10.542;2023-04-01T04:47:07;5.70;;;1.40;;
64959;SDS011;51487;52.266;10.542;2023-04-01T04:49:32;1.85;;;1.20;;
64959;SDS011;51487;52.266;10.542;2023-04-01T04:51:57;2.40;;;1.20;;
64959;SDS011;51487;52.266;10.542;2023-04-01T04:54:23;4.90;;;1.40;;
64959;SDS011;51487;52.266;10.542;2023-04-01T04:56:50;1.42;;;1.17;;
64959;SDS011;51487;52.266;10.542;2023-04-01T04:59:17;2.58;;;1.33;;
64959;SDS011;51487;52.266;10.542;2023-04-01T05:01:42;2.40;;;1.30;;
64959;SDS011;51487;52.266;10.542;2023-04-01T05:04:08;2.88;;;1.38;;
64959;SDS011;51487;52.266;10.542;2023-04-01T05:06:33;1.88;;;1.30;;
64959;SDS011;51487;52.266;10.542;2023-04-01T05:08:58;3.55;;;1.30;;
64959;SDS011;51487;52.266;10.542;2023-04-01T05:11:24;3.95;;;1.30;;
64959;SDS011;51487;52.266;10.542;2023-04-01T05:13:51;2.65;;;1.33;;
64959;SDS011;51487;52.266;10.542;2023-04-01T05:16:17;4.70;;;1.40;;
64959;SDS011;51487;52.266;10.542;2023-04-01T05:18:44;3.53;;;1.35;;
64959;SDS011;51487;52.266;10.542;2023-04-01T05:21:11;3.75;;;1.40;;
64959;SDS011;51487;52.266;10.542;2023-04-01T05:23:38;2.55;;;1.52;;
64959;SDS011;51487;52.266;10.542;2023-04-01T05:26:04;1.30;;;1.20;;
64959;SDS011;51487;52.266;10.542;2023-04-01T05:28:30;1.98;;;1.30;;
64959;SDS011;51487;52.266;10.542;2023-04-01T05:30:57;3.72;;;1.42;;
64959;SDS011;51487;52.266;10.542;2023-04-01T05:33:23;2.25;;;1.30;;
64959;SDS011;51487;52.266;10.542;2023-04-01T05:35:49;2.42;;;1.48;;
64959;SDS011;51487;52.266;10.542;2023-04-01T05:38:14;2.67;;;1.27;;
64959;SDS011;51487;52.266;10.542;2023-04-01T05:40:40;3.33;;;1.35;;
64959;SDS011;51487;52.266;10.542;2023-04-01T05:43:05;2.90;;;1.38;;
64959;SDS011;51487;52.266;10.542;2023-04-01T05:45:30;2.65;;;1.50;;
64959;SDS011;51487;52.266;10.542;2023-04-01T05:47:56;3.70;;;1.40;;
64959;SDS011;51487;52.266;10.542;2023-04-01T05:50:21;5.68;;;1.50;;
64959;SDS011;51487;52.266;10.542;2023-04-01T05:52:47;2.40;;;1.30;;
64959;SDS011;51487;52.266;10.542;2023-04-01T05:55:12;3.05;;;1.30;;
64959;SDS011;51487;52.266;10.542;2023-04-01T05:57:37;1.98;;;1.27;;
64959;SDS011;51487;52.266;10.542;2023-04-01T06:00:03;2.33;;;1.45;;
64959;SDS011;51487;52.266;10.542;2023-04-01T06:02:29;2.45;;;1.50;;
64959;SDS011;51487;52.266;10.542;2023-04-01T06:05:02;2.08;;;1.40;;
64959;SDS011;51487;52.266;10.542;2023-04-01T06:07:36;3.92;;;1.30;;
64959;SDS011;51487;52.266;10.542;2023-04-01T06:10:05;2.30;;;1.15;;
64959;SDS011;51487;52.266;10.542;2023-04-01T06:12:43;2.67;;;1.42;;
64959;SDS011;51487;52.266;10.542;2023-04-01T06:21:00;2.95;;;1.20;;
64959;SDS011;51487;52.266;10.542;2023-04-01T06:34:45;7.45;;;2.58;;
64959;SDS011;51487;52.266;10.542;2023-04-01T06:37:16;4.90;;;1.90;;
64959;SDS011;51487;52.266;10.542;2023-04-01T06:40:25;1.60;;;1.35;;
64959;SDS011;51487;52.266;10.542;2023-04-01T06:46:19;2.03;;;1.35;;
64959;SDS011;51487;52.266;10.542;2023-04-01T06:54:42;3.35;;;1.30;;
64959;SDS011;51487;52.266;10.542;2023-04-01T07:00:40;1.42;;;1.10;;
64959;SDS011;51487;52.266;10.542;2023-04-01T07:06:01;2.58;;;1.20;;
64959;SDS011;51487;52.266;10.542;2023-04-01T07:08:29;2.38;;;1.25;;
64959;SDS011;51487;52.266;10.542;2023-04-01T07:13:54;3.00;;;1.10;;
64959;SDS011;51487;52.266;10.542;2023-04-01T07:16:33;2.08;;;1.02;;
64959;SDS011;51487;52.266;10.542;2023-04-01T07:21:51;2.70;;;1.20;;
64959;SDS011;51487;52.266;10.542;2023-04-01T07:24:26;1.42;;;0.90;;
64959;SDS011;51487;52.266;10.542;2023-04-01T07:26:57;1.73;;;1.00;;
64959;SDS011;51487;52.266;10.542;2023-04-01T07:29:23;3.42;;;1.60;;
64959;SDS011;51487;52.266;10.542;2023-04-01T07:34:24;4.07;;;1.30;;
64959;SDS011;51487;52.266;10.542;2023-04-01T07:50:37;3.47;;;1.05;;
64959;SDS011;51487;52.266;10.542;2023-04-01T07:56:07;4.32;;;2.20;;
64959;SDS011;51487;52.266;10.542;2023-04-01T08:22:49;1.55;;;0.90;;
64959;SDS011;51487;52.266;10.542;2023-04-01T08:25:19;1.30;;;1.02;;
64959;SDS011;51487;52.266;10.542;2023-04-01T08:30:23;3.22;;;0.95;;
64959;SDS011;51487;52.266;10.542;2023-04-01T08:35:40;1.02;;;0.90;;
64959;SDS011;51487;52.266;10.542;2023-04-01T08:38:19;2.28;;;0.90;;
64959;SDS011;51487;52.266;10.542;2023-04-01T08:50:04;1.90;;;0.90;;
64959;SDS011;51487;52.266;10.542;2023-04-01T08:55:31;1.15;;;0.95;;
64959;SDS011;51487;52.266;10.542;2023-04-01T09:09:33;0.98;;;0.90;;
64959;SDS011;51487;52.266;10.542;2023-04-01T09:25:15;1.20;;;0.63;;
64959;SDS011;51487;52.266;10.542;2023-04-01T09:36:24;1.58;;;0.90;;
64959;SDS011;51487;52.266;10.542;2023-04-01T09:42:31;2.10;;;0.90;;
64959;SDS011;51487;52.266;10.542;2023-04-01T09:44:59;1.17;;;0.77;;
64959;SDS011;51487;52.266;10.542;2023-04-01T09:50:18;1.40;;;0.80;;
64959;SDS011;51487;52.266;10.542;2023-04-01T09:53:03;1.47;;;0.90;;
64959;SDS011;51487;52.266;10.542;2023-04-01T10:15:00;1.73;;;1.00;;
64959;SDS011;51487;52.266;10.542;2023-04-01T10:18:19;0.88;;;0.70;;
64959;SDS011;51487;52.266;10.542;2023-04-01T10:20:44;0.70;;;0.63;;
64959;SDS011;51487;52.266;10.542;2023-04-01T10:28:33;0.80;;;0.80;;
64959;SDS011;51487;52.266;10.542;2023-04-01T10:51:12;1.45;;;0.82;;
64959;SDS011;51487;52.266;10.542;2023-04-01T11:22:08;0.88;;;0.88;;
64959;SDS011;51487;52.266;10.542;2023-04-01T11:24:40;0.73;;;0.68;;
64959;SDS011;51487;52.266;10.542;2023-04-01T11:32:39;0.80;;;0.80;;
64959;SDS011;51487;52.266;10.542;2023-04-01T11:35:32;0.95;;;0.70;;
64959;SDS011;51487;52.266;10.542;2023-04-01T11:38:23;0.93;;;0.90;;
64959;SDS011;51487;52.266;10.542;2023-04-01T11:52:34;1.13;;;0.70;;
64959;SDS011;51487;52.266;10.542;2023-04-01T12:15:29;1.13;;;0.75;;
64959;SDS011;51487;52.266;10.542;2023-04-01T12:20:57;1.25;;;1.00;;
64959;SDS011;51487;52.266;10.542;2023-04-01T12:29:41;1.30;;;0.82;;
64959;SDS011;51487;52.266;10.542;2023-04-01T12:42:58;2.55;;;1.05;;
64959;SDS011;51487;52.266;10.542;2023-04-01T12:45:31;1.40;;;1.10;;
64959;SDS011;51487;52.266;10.542;2023-04-01T12:53:14;1.85;;;1.00;;
64959;SDS011;51487;52.266;10.542;2023-04-01T12:56:03;1.90;;;1.08;;
64959;SDS011;51487;52.266;10.542;2023-04-01T12:58:48;1.55;;;0.80;;
64959;SDS011;51487;52.266;10.542;2023-04-01T13:01:44;1.00;;;0.80;;
64959;SDS011;51487;52.266;10.542;2023-04-01T13:04:30;1.48;;;1.00;;
64959;SDS011;51487;52.266;10.542;2023-04-01T13:09:37;3.97;;;1.08;;
64959;SDS011;51487;52.266;10.542;2023-04-01T13:12:36;3.05;;;1.42;;
64959;SDS011;51487;52.266;10.542;2023-04-01T13:21:19;3.08;;;1.13;;
64959;SDS011;51487;52.266;10.542;2023-04-01T13:29:23;2.25;;;1.20;;
64959;SDS011;51487;52.266;10.542;2023-04-01T13:32:00;1.45;;;0.95;;
64959;SDS011;51487;52.266;10.542;2023-04-01T13:53:02;1.50;;;1.40;;
64959;SDS011;51487;52.266;10.542;2023-04-01T13:58:33;1.90;;;1.40;;
64959;SDS011;51487;52.266;10.542;2023-04-01T14:01:05;1.50;;;1.40;;
64959;SDS011;51487;52.266;10.542;2023-04-01T14:06:27;1.45;;;1.35;;
64959;SDS011;51487;52.266;10.542;2023-04-01T14:22:53;1.40;;;1.30;;
64959;SDS011;51487;52.266;10.542;2023-04-01T14:34:19;1.38;;;1.30;;
64959;SDS011;51487;52.266;10.542;2023-04-01T14:47:51;1.50;;;1.40;;
64959;SDS011;51487;52.266;10.542;2023-04-01T14:50:21;3.83;;;1.48;;
64959;SDS011;51487;52.266;10.542;2023-04-01T14:58:11;2.47;;;1.58;;
64959;SDS011;51487;52.266;10.542;2023-04-01T15:11:23;3.83;;;2.10;;
64959;SDS011;51487;52.266;10.542;2023-04-01T15:18:05;1.75;;;1.65;;
64959;SDS011;51487;52.266;10.542;2023-04-01T15:25:45;1.50;;;1.40;;
64959;SDS011;51487;52.266;10.542;2023-04-01T15:28:37;1.50;;;1.40;;
64959;SDS011;51487;52.266;10.542;2023-04-01T15:36:20;1.33;;;1.33;;
64959;SDS011;51487;52.266;10.542;2023-04-01T15:46:57;1.33;;;1.30;;
64959;SDS011;51487;52.266;10.542;2023-04-01T15:49:42;1.40;;;1.30;;
64959;SDS011;51487;52.266;10.542;2023-04-01T15:55:24;2.65;;;1.52;;
64959;SDS011;51487;52.266;10.542;2023-04-01T16:16:41;2.78;;;1.48;;
64959;SDS011;51487;52.266;10.542;2023-04-01T16:22:11;1.20;;;1.20;;
64959;SDS011;51487;52.266;10.542;2023-04-01T16:24:46;1.60;;;1.50;;
64959;SDS011;51487;52.266;10.542;2023-04-01T16:29:55;2.20;;;1.42;;
64959;SDS011;51487;52.266;10.542;2023-04-01T16:32:36;1.40;;;1.27;;
64959;SDS011;51487;52.266;10.542;2023-04-01T16:38:00;1.50;;;1.40;;
64959;SDS011;51487;52.266;10.542;2023-04-01T16:57:03;1.77;;;1.67;;
64959;SDS011;51487;52.266;10.542;2023-04-01T16:59:40;1.52;;;1.42;;
64959;SDS011;51487;52.266;10.542;2023-04-01T17:02:13;1.70;;;1.60;;
64959;SDS011;51487;52.266;10.542;2023-04-01T17:07:32;2.00;;;1.80;;
64959;SDS011;51487;52.266;10.542;2023-04-01T17:10:53;2.40;;;1.67;;
64959;SDS011;51487;52.266;10.542;2023-04-01T17:26:46;1.83;;;1.73;;
64959;SDS011;51487;52.266;10.542;2023-04-01T17:32:11;1.58;;;1.48;;
64959;SDS011;51487;52.266;10.542;2023-04-01T17:40:12;1.60;;;1.40;;
64959;SDS011;51487;52.266;10.542;2023-04-01T17:45:52;2.17;;;1.75;;
64959;SDS011;51487;52.266;10.542;2023-04-01T17:56:28;3.15;;;1.77;;
64959;SDS011;51487;52.266;10.542;2023-04-01T18:01:51;1.40;;;1.30;;
64959;SDS011;51487;52.266;10.542;2023-04-01T18:07:23;1.88;;;1.70;;
64959;SDS011;51487;52.266;10.542;2023-04-01T18:15:37;1.40;;;1.40;;
64959;SDS011;51487;52.266;10.542;2023-04-01T18:25:54;1.60;;;1.50;;
64959;SDS011;51487;52.266;10.542;2023-04-01T18:28:42;1.60;;;1.50;;
64959;SDS011;51487;52.266;10.542;2023-04-01T18:31:16;1.80;;;1.50;;
64959;SDS011;51487;52.266;10.542;2023-04-01T18:33:46;1.63;;;1.52;;
64959;SDS011;51487;52.266;10.542;2023-04-01T18:39:08;1.60;;;1.50;;
64959;SDS011;51487;52.266;10.542;2023-04-01T18:52:46;1.70;;;1.60;;
64959;SDS011;51487;52.266;10.542;2023-04-01T18:55:22;1.60;;;1.50;;
64959;SDS011;51487;52.266;10.542;2023-04-01T18:57:52;1.50;;;1.40;;
64959;SDS011;51487;52.266;10.542;2023-04-01T19:05:31;1.50;;;1.40;;
64959;SDS011;51487;52.266;10.542;2023-04-01T19:08:45;1.42;;;1.35;;
64959;SDS011;51487;52.266;10.542;2023-04-01T19:10:48;1.50;;;1.40;;
64959;SDS011;51487;52.266;10.542;2023-04-01T19:13:42;1.60;;;1.52;;
64959;SDS011;51487;52.266;10.542;2023-04-01T19:27:35;1.92;;;1.83;;
64959;SDS011;51487;52.266;10.542;2023-04-01T19:35:35;1.75;;;1.65;;
64959;SDS011;51487;52.266;10.542;2023-04-01T19:38:17;1.90;;;1.80;;
64959;SDS011;51487;52.266;10.542;2023-04-01T19:40:58;2.30;;;1.77;;
64959;SDS011;51487;52.266;10.542;2023-04-01T19:43:54;3.20;;;2.65;;
64959;SDS011;51487;52.266;10.542;2023-04-01T19:51:35;3.40;;;2.67;;
64959;SDS011;51487;52.266;10.542;2023-04-01T19:54:20;5.05;;;3.40;;
64959;SDS011;51487;52.266;10.542;2023-04-01T19:59:47;3.80;;;3.05;;
64959;SDS011;51487;52.266;10.542;2023-04-01T20:05:17;5.72;;;3.67;;
64959;SDS011;51487;52.266;10.542;2023-04-01T20:14:04;5.53;;;3.35;;
64959;SDS011;51487;52.266;10.542;2023-04-01T20:19:33;4.47;;;2.83;;
64959;SDS011;51487;52.266;10.542;2023-04-01T20:22:04;3.90;;;2.85;;
64959;SDS011;51487;52.266;10.542;2023-04-01T20:24:37;3.72;;;3.17;;
64959;SDS011;51487;52.266;10.542;2023-04-01T20:27:09;3.20;;;2.58;;
64959;SDS011;51487;52.266;10.542;2023-04-01T20:32:40;4.72;;;3.30;;
64959;SDS011;51487;52.266;10.542;2023-04-01T20:41:09;3.10;;;2.83;;
64959;SDS011;51487;52.266;10.542;2023-04-01T20:43:40;3.65;;;2.88;;
64959;SDS011;51487;52.266;10.542;2023-04-01T20:46:20;4.15;;;3.00;;
64959;SDS011;51487;52.266;10.542;2023-04-01T20:51:35;4.75;;;3.22;;
64959;SDS011;51487;52.266;10.542;2023-04-01T21:08:17;5.30;;;3.55;;
64959;SDS011;51487;52.266;10.542;2023-04-01T21:38:16;5.68;;;3.75;;
64959;SDS011;51487;52.266;10.542;2023-04-01T21:40:49;4.55;;;3.35;;
64959;SDS011;51487;52.266;10.542;2023-04-01T21:49:31;5.03;;;3.40;;
64959;SDS011;51487;52.266;10.542;2023-04-01T22:00:53;6.35;;;3.80;;
64959;SDS011;51487;52.266;10.542;2023-04-01T22:16:42;5.70;;;3.83;;
64959;SDS011;51487;52.266;10.542;2023-04-01T22:25:43;6.45;;;3.97;;
64959;SDS011;51487;52.266;10.542;2023-04-01T22:31:11;6.05;;;3.88;;
64959;SDS011;51487;52.266;10.542;2023-04-01T22:33:47;8.07;;;4.40;;
64959;SDS011;51487;52.266;10.542;2023-04-01T22:36:36;6.65;;;4.40;;
64959;SDS011;51487;52.266;10.542;2023-04-01T22:42:19;6.70;;;4.43;;
64959;SDS011;51487;52.266;10.542;2023-04-01T22:48:45;7.07;;;4.53;;
64959;SDS011;51487;52.266;10.542;2023-04-01T22:51:38;7.30;;;4.20;;
64959;SDS011;51487;52.266;10.542;2023-04-01T22:54:14;7.65;;;4.57;;
64959;SDS011;51487;52.266;10.542;2023-04-01T22:56:52;9.35;;;4.32;;
64959;SDS011;51487;52.266;10.542;2023-04-01T22:59:24;8.95;;;4.82;;
64959;SDS011;51487;52.266;10.542;2023-04-01T23:02:01;6.57;;;4.00;;
64959;SDS011;51487;52.266;10.542;2023-04-01T23:04:33;6.82;;;4.72;;
64959;SDS011;51487;52.266;10.542;2023-04-01T23:07:04;7.50;;;4.75;;
64959;SDS011;51487;52.266;10.542;2023-04-01T23:09:58;6.65;;;4.00;;
64959;SDS011;51487;52.266;10.542;2023-04-01T23:12:26;7.53;;;4.50;;
64959;SDS011;51487;52.266;10.542;2023-04-01T23:14:52;8.50;;;4.63;;
64959;SDS011;51487;52.266;10.542;2023-04-01T23:19:54;6.28;;;4.20;;
64959;SDS011;51487;52.266;10.542;2023-04-01T23:25:54;4.93;;;3.78;;
64959;SDS011;51487;52.266;10.542;2023-04-01T23:28:39;5.22;;;3.88;;
64959;SDS011;51487;52.266;10.542;2023-04-01T23:31:24;7.72;;;4.43;;
64959;SDS011;51487;52.266;10.542;2023-04-01T23:33:55;8.45;;;3.97;;
64959;SDS011;51487;52.266;10.542;2023-04-01T23:36:21;6.30;;;4.13;;
64959;SDS011;51487;52.266;10.542;2023-04-01T23:38:48;10.52;;;3.88;;
64959;SDS011;51487;52.266;10.542;2023-04-01T23:41:22;6.32;;;3.58;;
64959;SDS011;51487;52.266;10.542;2023-04-01T23:44:10;6.82;;;3.88;;
64959;SDS011;51487;52.266;10.542;2023-04-01T23:46:38;6.47;;;3.63;;
64959;SDS011;51487;52.266;10.542;2023-04-01T23:52:27;8.70;;;3.83;;
64959;SDS011;51487;52.266;10.542;2023-04-01T23:55:01;7.38;;;3.33;;
64959;SDS011;51487;52.266;10.542;2023-04-01T23:57:34;4.05;;;3.10;;
